sensor_id;sensor_type;location;lat;lon;timestamp;P1;durP1;ratioP1;P2;durP2;ratioP2
13425;SDS011;6785;57.918;12.530;2023-03-23T00:00:47;59.97;;;8.80;;
13425;SDS011;6785;57.918;12.530;2023-03-23T00:03:13;56.43;;;8.60;;
13425;SDS011;6785;57.918;12.530;2023-03-23T00:05:41;50.70;;;8.83;;
13425;SDS011;6785;57.918;12.530;2023-03-23T00:08:14;43.63;;;8.43;;
13425;SDS011;6785;57.918;12.530;2023-03-23T00:10:41;43.03;;;6.87;;
13425;SDS011;6785;57.918;12.530;2023-03-23T00:13:08;46.53;;;7.57;;
13425;SDS011;6785;57.918;12.530;2023-03-23T00:15:36;40.80;;;7.70;;
13425;SDS011;6785;57.918;12.530;2023-03-23T00:18:06;53.67;;;8.13;;
13425;SDS011;6785;57.918;12.530;2023-03-23T00:20:33;36.20;;;7.60;;
13425;SDS011;6785;57.918;12.530;2023-03-23T00:23:07;36.33;;;8.03;;
13425;SDS011;6785;57.918;12.530;2023-03-23T00:25:33;35.60;;;7.27;;
13425;SDS011;6785;57.918;12.530;2023-03-23T00:28:00;40.47;;;7.40;;
13425;SDS011;6785;57.918;12.530;2023-03-23T00:30:28;41.37;;;8.20;;
13425;SDS011;6785;57.918;12.530;2023-03-23T00:32:55;43.63;;;8.20;;
13425;SDS011;6785;57.918;12.530;2023-03-23T00:35:22;39.57;;;7.50;;
13425;SDS011;6785;57.918;12.530;2023-03-23T00:37:50;46.03;;;7.70;;
13425;SDS011;6785;57.918;12.530;2023-03-23T00:40:18;43.33;;;8.53;;
13425;SDS011;6785;57.918;12.530;2023-03-23T00:42:44;45.63;;;7.40;;
13425;SDS011;6785;57.918;12.530;2023-03-23T00:45:13;39.43;;;7.87;;
13425;SDS011;6785;57.918;12.530;2023-03-23T00:47:41;41.03;;;7.37;;
13425;SDS011;6785;57.918;12.530;2023-03-23T00:50:11;43.70;;;7.77;;
13425;SDS011;6785;57.918;12.530;2023-03-23T00:52:39;51.90;;;8.80;;
13425;SDS011;6785;57.918;12.530;2023-03-23T00:55:06;44.30;;;6.87;;
13425;SDS011;6785;57.918;12.530;2023-03-23T00:57:35;43.13;;;7.10;;
13425;SDS011;6785;57.918;12.530;2023-03-23T01:00:01;37.63;;;7.43;;
13425;SDS011;6785;57.918;12.530;2023-03-23T01:02:30;34.07;;;7.23;;
13425;SDS011;6785;57.918;12.530;2023-03-23T01:04:57;40.83;;;7.10;;
13425;SDS011;6785;57.918;12.530;2023-03-23T01:07:24;54.20;;;7.80;;
13425;SDS011;6785;57.918;12.530;2023-03-23T01:09:53;38.80;;;6.13;;
13425;SDS011;6785;57.918;12.530;2023-03-23T01:12:19;37.37;;;6.47;;
13425;SDS011;6785;57.918;12.530;2023-03-23T01:14:50;46.03;;;8.13;;
13425;SDS011;6785;57.918;12.530;2023-03-23T01:17:17;35.20;;;7.17;;
13425;SDS011;6785;57.918;12.530;2023-03-23T01:19:44;38.37;;;7.27;;
13425;SDS011;6785;57.918;12.530;2023-03-23T01:22:11;34.63;;;6.10;;
13425;SDS011;6785;57.918;12.530;2023-03-23T01:24:38;42.77;;;7.70;;
13425;SDS011;6785;57.918;12.530;2023-03-23T01:27:05;29.87;;;7.00;;
13425;SDS011;6785;57.918;12.530;2023-03-23T01:29:32;38.20;;;7.70;;
13425;SDS011;6785;57.918;12.530;2023-03-23T01:32:00;49.07;;;7.47;;
13425;SDS011;6785;57.918;12.530;2023-03-23T01:34:27;37.43;;;7.17;;
13425;SDS011;6785;57.918;12.530;2023-03-23T01:36:54;29.93;;;7.40;;
13425;SDS011;6785;57.918;12.530;2023-03-23T01:39:21;28.50;;;6.90;;
13425;SDS011;6785;57.918;12.530;2023-03-23T01:41:47;52.10;;;7.60;;
13425;SDS011;6785;57.918;12.530;2023-03-23T01:47:20;38.73;;;7.83;;
13425;SDS011;6785;57.918;12.530;2023-03-23T01:49:51;29.43;;;7.30;;
13425;SDS011;6785;57.918;12.530;2023-03-23T01:52:19;43.63;;;7.93;;
13425;SDS011;6785;57.918;12.530;2023-03-23T01:54:50;43.17;;;7.97;;
13425;SDS011;6785;57.918;12.530;2023-03-23T01:57:19;43.30;;;7.73;;
13425;SDS011;6785;57.918;12.530;2023-03-23T01:59:52;31.93;;;6.77;;
13425;SDS011;6785;57.918;12.530;2023-03-23T02:02:22;37.43;;;8.63;;
13425;SDS011;6785;57.918;12.530;2023-03-23T02:04:51;30.87;;;6.80;;
13425;SDS011;6785;57.918;12.530;2023-03-23T02:07:26;31.13;;;7.87;;
13425;SDS011;6785;57.918;12.530;2023-03-23T02:09:52;35.23;;;7.83;;
13425;SDS011;6785;57.918;12.530;2023-03-23T02:12:19;28.80;;;7.33;;
13425;SDS011;6785;57.918;12.530;2023-03-23T02:14:46;37.53;;;7.70;;
13425;SDS011;6785;57.918;12.530;2023-03-23T02:17:14;37.27;;;7.13;;
13425;SDS011;6785;57.918;12.530;2023-03-23T02:19:55;34.23;;;7.87;;
13425;SDS011;6785;57.918;12.530;2023-03-23T02:22:38;32.33;;;6.83;;
13425;SDS011;6785;57.918;12.530;2023-03-23T02:25:36;28.80;;;7.30;;
13425;SDS011;6785;57.918;12.530;2023-03-23T02:31:38;36.50;;;6.63;;
13425;SDS011;6785;57.918;12.530;2023-03-23T02:34:14;30.10;;;6.57;;
13425;SDS011;6785;57.918;12.530;2023-03-23T02:36:44;26.50;;;6.80;;
13425;SDS011;6785;57.918;12.530;2023-03-23T02:39:16;26.90;;;7.70;;
13425;SDS011;6785;57.918;12.530;2023-03-23T02:41:49;29.03;;;6.97;;
13425;SDS011;6785;57.918;12.530;2023-03-23T02:44:19;32.23;;;7.73;;
13425;SDS011;6785;57.918;12.530;2023-03-23T02:46:48;25.23;;;7.67;;
13425;SDS011;6785;57.918;12.530;2023-03-23T02:49:17;34.90;;;7.90;;
13425;SDS011;6785;57.918;12.530;2023-03-23T02:51:45;32.70;;;7.67;;
13425;SDS011;6785;57.918;12.530;2023-03-23T02:54:14;29.20;;;8.00;;
13425;SDS011;6785;57.918;12.530;2023-03-23T02:56:42;33.17;;;8.37;;
13425;SDS011;6785;57.918;12.530;2023-03-23T02:59:10;35.90;;;7.67;;
13425;SDS011;6785;57.918;12.530;2023-03-23T03:01:48;27.43;;;6.83;;
13425;SDS011;6785;57.918;12.530;2023-03-23T03:04:21;28.57;;;7.07;;
13425;SDS011;6785;57.918;12.530;2023-03-23T03:06:53;31.30;;;8.30;;
13425;SDS011;6785;57.918;12.530;2023-03-23T03:09:30;23.07;;;7.17;;
13425;SDS011;6785;57.918;12.530;2023-03-23T03:12:06;31.50;;;6.80;;
13425;SDS011;6785;57.918;12.530;2023-03-23T03:14:37;18.90;;;6.37;;
13425;SDS011;6785;57.918;12.530;2023-03-23T03:17:09;22.97;;;6.27;;
13425;SDS011;6785;57.918;12.530;2023-03-23T03:19:44;27.80;;;6.90;;
13425;SDS011;6785;57.918;12.530;2023-03-23T03:22:15;34.97;;;7.33;;
13425;SDS011;6785;57.918;12.530;2023-03-23T03:24:43;27.73;;;6.90;;
13425;SDS011;6785;57.918;12.530;2023-03-23T03:27:11;32.37;;;7.03;;
13425;SDS011;6785;57.918;12.530;2023-03-23T03:29:41;29.13;;;6.60;;
13425;SDS011;6785;57.918;12.530;2023-03-23T03:32:14;29.67;;;7.13;;
13425;SDS011;6785;57.918;12.530;2023-03-23T03:34:45;26.30;;;7.37;;
13425;SDS011;6785;57.918;12.530;2023-03-23T03:37:12;33.53;;;7.23;;
13425;SDS011;6785;57.918;12.530;2023-03-23T03:39:40;34.13;;;6.87;;
13425;SDS011;6785;57.918;12.530;2023-03-23T03:42:06;31.23;;;6.70;;
13425;SDS011;6785;57.918;12.530;2023-03-23T03:44:33;36.17;;;7.57;;
13425;SDS011;6785;57.918;12.530;2023-03-23T03:47:00;29.23;;;6.57;;
13425;SDS011;6785;57.918;12.530;2023-03-23T03:49:27;30.27;;;7.50;;
13425;SDS011;6785;57.918;12.530;2023-03-23T03:51:55;33.60;;;6.57;;
13425;SDS011;6785;57.918;12.530;2023-03-23T03:54:22;28.73;;;6.10;;
13425;SDS011;6785;57.918;12.530;2023-03-23T03:56:49;27.93;;;6.87;;
13425;SDS011;6785;57.918;12.530;2023-03-23T03:59:16;25.60;;;6.07;;
13425;SDS011;6785;57.918;12.530;2023-03-23T04:01:43;26.53;;;5.90;;
13425;SDS011;6785;57.918;12.530;2023-03-23T04:04:10;30.30;;;6.03;;
13425;SDS011;6785;57.918;12.530;2023-03-23T04:06:36;26.37;;;6.00;;
13425;SDS011;6785;57.918;12.530;2023-03-23T04:09:04;25.73;;;6.03;;
13425;SDS011;6785;57.918;12.530;2023-03-23T04:11:32;26.57;;;6.23;;
13425;SDS011;6785;57.918;12.530;2023-03-23T04:13:59;31.77;;;5.97;;
13425;SDS011;6785;57.918;12.530;2023-03-23T04:16:25;33.60;;;6.77;;
13425;SDS011;6785;57.918;12.530;2023-03-23T04:18:54;34.40;;;6.77;;
13425;SDS011;6785;57.918;12.530;2023-03-23T04:21:22;29.60;;;7.23;;
13425;SDS011;6785;57.918;12.530;2023-03-23T04:23:48;23.70;;;6.57;;
13425;SDS011;6785;57.918;12.530;2023-03-23T04:26:16;36.20;;;6.30;;
13425;SDS011;6785;57.918;12.530;2023-03-23T04:28:43;21.17;;;6.73;;
13425;SDS011;6785;57.918;12.530;2023-03-23T04:31:10;32.43;;;7.23;;
13425;SDS011;6785;57.918;12.530;2023-03-23T04:33:37;29.00;;;6.97;;
13425;SDS011;6785;57.918;12.530;2023-03-23T04:36:06;25.60;;;6.90;;
13425;SDS011;6785;57.918;12.530;2023-03-23T04:38:33;20.83;;;6.33;;
13425;SDS011;6785;57.918;12.530;2023-03-23T04:41:00;28.50;;;7.03;;
13425;SDS011;6785;57.918;12.530;2023-03-23T04:43:28;24.03;;;6.20;;
13425;SDS011;6785;57.918;12.530;2023-03-23T04:45:58;21.73;;;6.87;;
13425;SDS011;6785;57.918;12.530;2023-03-23T04:48:27;20.63;;;6.20;;
13425;SDS011;6785;57.918;12.530;2023-03-23T04:50:58;33.20;;;6.37;;
13425;SDS011;6785;57.918;12.530;2023-03-23T04:53:27;26.87;;;6.67;;
13425;SDS011;6785;57.918;12.530;2023-03-23T04:55:54;34.90;;;7.43;;
13425;SDS011;6785;57.918;12.530;2023-03-23T04:58:21;22.17;;;6.50;;
13425;SDS011;6785;57.918;12.530;2023-03-23T05:00:50;26.10;;;6.77;;
13425;SDS011;6785;57.918;12.530;2023-03-23T05:03:17;27.00;;;6.50;;
13425;SDS011;6785;57.918;12.530;2023-03-23T05:05:45;28.23;;;6.87;;
13425;SDS011;6785;57.918;12.530;2023-03-23T05:08:16;16.93;;;5.67;;
13425;SDS011;6785;57.918;12.530;2023-03-23T05:10:49;17.33;;;6.17;;
13425;SDS011;6785;57.918;12.530;2023-03-23T05:13:17;18.07;;;5.93;;
13425;SDS011;6785;57.918;12.530;2023-03-23T05:15:44;26.37;;;6.47;;
13425;SDS011;6785;57.918;12.530;2023-03-23T05:18:12;18.53;;;5.33;;
13425;SDS011;6785;57.918;12.530;2023-03-23T05:20:39;15.53;;;5.50;;
13425;SDS011;6785;57.918;12.530;2023-03-23T05:23:06;19.43;;;5.43;;
13425;SDS011;6785;57.918;12.530;2023-03-23T05:25:34;19.83;;;5.97;;
13425;SDS011;6785;57.918;12.530;2023-03-23T05:28:04;15.40;;;7.00;;
13425;SDS011;6785;57.918;12.530;2023-03-23T05:30:31;18.50;;;6.20;;
13425;SDS011;6785;57.918;12.530;2023-03-23T05:32:58;14.57;;;5.87;;
13425;SDS011;6785;57.918;12.530;2023-03-23T05:35:26;18.93;;;5.73;;
13425;SDS011;6785;57.918;12.530;2023-03-23T05:37:53;16.10;;;6.20;;
13425;SDS011;6785;57.918;12.530;2023-03-23T05:40:21;16.23;;;6.07;;
13425;SDS011;6785;57.918;12.530;2023-03-23T05:42:48;21.77;;;5.50;;
13425;SDS011;6785;57.918;12.530;2023-03-23T05:45:15;17.73;;;6.23;;
13425;SDS011;6785;57.918;12.530;2023-03-23T05:47:42;22.47;;;5.70;;
13425;SDS011;6785;57.918;12.530;2023-03-23T05:50:09;13.47;;;5.43;;
13425;SDS011;6785;57.918;12.530;2023-03-23T05:52:38;19.33;;;6.13;;
13425;SDS011;6785;57.918;12.530;2023-03-23T05:55:06;21.27;;;5.90;;
13425;SDS011;6785;57.918;12.530;2023-03-23T05:57:34;14.70;;;5.53;;
13425;SDS011;6785;57.918;12.530;2023-03-23T06:00:01;20.00;;;5.47;;
13425;SDS011;6785;57.918;12.530;2023-03-23T06:02:38;17.93;;;5.57;;
13425;SDS011;6785;57.918;12.530;2023-03-23T06:05:08;13.10;;;5.73;;
13425;SDS011;6785;57.918;12.530;2023-03-23T06:07:36;20.30;;;5.37;;
13425;SDS011;6785;57.918;12.530;2023-03-23T06:10:06;17.70;;;5.93;;
13425;SDS011;6785;57.918;12.530;2023-03-23T06:12:33;15.80;;;5.40;;
13425;SDS011;6785;57.918;12.530;2023-03-23T06:15:00;18.73;;;5.87;;
13425;SDS011;6785;57.918;12.530;2023-03-23T06:17:27;11.07;;;5.47;;
13425;SDS011;6785;57.918;12.530;2023-03-23T06:19:54;18.17;;;5.37;;
13425;SDS011;6785;57.918;12.530;2023-03-23T06:22:21;29.07;;;6.77;;
13425;SDS011;6785;57.918;12.530;2023-03-23T06:24:48;13.87;;;5.10;;
13425;SDS011;6785;57.918;12.530;2023-03-23T06:27:16;15.83;;;4.73;;
13425;SDS011;6785;57.918;12.530;2023-03-23T06:29:42;23.73;;;5.10;;
13425;SDS011;6785;57.918;12.530;2023-03-23T06:32:09;16.83;;;5.10;;
13425;SDS011;6785;57.918;12.530;2023-03-23T06:34:37;21.10;;;5.93;;
13425;SDS011;6785;57.918;12.530;2023-03-23T06:37:05;11.17;;;4.63;;
13425;SDS011;6785;57.918;12.530;2023-03-23T06:39:32;14.37;;;4.77;;
13425;SDS011;6785;57.918;12.530;2023-03-23T06:41:59;14.13;;;5.07;;
13425;SDS011;6785;57.918;12.530;2023-03-23T06:44:27;17.60;;;4.83;;
13425;SDS011;6785;57.918;12.530;2023-03-23T06:46:54;11.33;;;4.90;;
13425;SDS011;6785;57.918;12.530;2023-03-23T06:49:21;14.30;;;5.07;;
13425;SDS011;6785;57.918;12.530;2023-03-23T06:51:48;16.13;;;5.43;;
13425;SDS011;6785;57.918;12.530;2023-03-23T06:54:15;10.43;;;4.00;;
13425;SDS011;6785;57.918;12.530;2023-03-23T06:56:41;13.27;;;5.23;;
13425;SDS011;6785;57.918;12.530;2023-03-23T06:59:08;14.23;;;4.93;;
13425;SDS011;6785;57.918;12.530;2023-03-23T07:01:36;14.80;;;5.07;;
13425;SDS011;6785;57.918;12.530;2023-03-23T07:04:03;11.83;;;4.40;;
13425;SDS011;6785;57.918;12.530;2023-03-23T07:06:30;13.20;;;4.57;;
13425;SDS011;6785;57.918;12.530;2023-03-23T07:08:57;12.57;;;4.63;;
13425;SDS011;6785;57.918;12.530;2023-03-23T07:11:24;16.60;;;5.60;;
13425;SDS011;6785;57.918;12.530;2023-03-23T07:13:51;11.17;;;4.57;;
13425;SDS011;6785;57.918;12.530;2023-03-23T07:16:18;11.43;;;5.23;;
13425;SDS011;6785;57.918;12.530;2023-03-23T07:18:46;14.67;;;4.63;;
13425;SDS011;6785;57.918;12.530;2023-03-23T07:21:12;15.33;;;6.10;;
13425;SDS011;6785;57.918;12.530;2023-03-23T07:23:39;13.00;;;5.00;;
13425;SDS011;6785;57.918;12.530;2023-03-23T07:26:06;10.43;;;5.07;;
13425;SDS011;6785;57.918;12.530;2023-03-23T07:28:33;8.40;;;4.80;;
13425;SDS011;6785;57.918;12.530;2023-03-23T07:31:01;12.00;;;5.03;;
13425;SDS011;6785;57.918;12.530;2023-03-23T07:33:28;11.93;;;4.77;;
13425;SDS011;6785;57.918;12.530;2023-03-23T07:35:57;11.37;;;5.23;;
13425;SDS011;6785;57.918;12.530;2023-03-23T07:38:24;13.73;;;4.37;;
13425;SDS011;6785;57.918;12.530;2023-03-23T07:40:52;13.77;;;4.90;;
13425;SDS011;6785;57.918;12.530;2023-03-23T07:43:19;15.27;;;5.23;;
13425;SDS011;6785;57.918;12.530;2023-03-23T07:45:46;12.77;;;5.13;;
13425;SDS011;6785;57.918;12.530;2023-03-23T07:48:13;13.57;;;5.10;;
13425;SDS011;6785;57.918;12.530;2023-03-23T07:50:39;9.70;;;4.67;;
13425;SDS011;6785;57.918;12.530;2023-03-23T07:53:08;9.23;;;5.07;;
13425;SDS011;6785;57.918;12.530;2023-03-23T07:55:34;12.17;;;5.93;;
13425;SDS011;6785;57.918;12.530;2023-03-23T07:58:02;13.00;;;5.73;;
13425;SDS011;6785;57.918;12.530;2023-03-23T08:00:29;17.30;;;5.97;;
13425;SDS011;6785;57.918;12.530;2023-03-23T08:02:57;11.90;;;5.97;;
13425;SDS011;6785;57.918;12.530;2023-03-23T08:05:24;11.77;;;5.43;;
13425;SDS011;6785;57.918;12.530;2023-03-23T08:07:53;16.60;;;5.87;;
13425;SDS011;6785;57.918;12.530;2023-03-23T08:10:22;12.77;;;5.57;;
13425;SDS011;6785;57.918;12.530;2023-03-23T08:12:50;11.80;;;5.17;;
13425;SDS011;6785;57.918;12.530;2023-03-23T08:15:18;13.43;;;5.40;;
13425;SDS011;6785;57.918;12.530;2023-03-23T08:17:46;13.30;;;4.77;;
13425;SDS011;6785;57.918;12.530;2023-03-23T08:20:13;12.87;;;4.77;;
13425;SDS011;6785;57.918;12.530;2023-03-23T08:22:42;12.40;;;4.37;;
13425;SDS011;6785;57.918;12.530;2023-03-23T08:25:11;11.60;;;5.43;;
13425;SDS011;6785;57.918;12.530;2023-03-23T08:27:40;10.87;;;4.67;;
13425;SDS011;6785;57.918;12.530;2023-03-23T08:30:08;12.73;;;5.10;;
13425;SDS011;6785;57.918;12.530;2023-03-23T08:32:37;11.43;;;5.87;;
13425;SDS011;6785;57.918;12.530;2023-03-23T08:35:04;8.80;;;5.13;;
13425;SDS011;6785;57.918;12.530;2023-03-23T08:37:32;14.30;;;5.20;;
13425;SDS011;6785;57.918;12.530;2023-03-23T08:39:58;12.57;;;5.40;;
13425;SDS011;6785;57.918;12.530;2023-03-23T08:42:28;11.67;;;5.57;;
13425;SDS011;6785;57.918;12.530;2023-03-23T08:44:56;9.60;;;5.40;;
13425;SDS011;6785;57.918;12.530;2023-03-23T08:47:23;8.33;;;4.97;;
13425;SDS011;6785;57.918;12.530;2023-03-23T08:49:50;8.87;;;5.23;;
13425;SDS011;6785;57.918;12.530;2023-03-23T08:52:18;11.73;;;5.10;;
13425;SDS011;6785;57.918;12.530;2023-03-23T08:54:46;11.87;;;5.40;;
13425;SDS011;6785;57.918;12.530;2023-03-23T08:57:13;6.70;;;5.17;;
13425;SDS011;6785;57.918;12.530;2023-03-23T08:59:40;11.83;;;5.63;;
13425;SDS011;6785;57.918;12.530;2023-03-23T09:02:09;6.63;;;4.60;;
13425;SDS011;6785;57.918;12.530;2023-03-23T09:04:37;8.30;;;5.20;;
13425;SDS011;6785;57.918;12.530;2023-03-23T09:07:07;7.60;;;4.63;;
13425;SDS011;6785;57.918;12.530;2023-03-23T09:09:35;8.67;;;4.33;;
13425;SDS011;6785;57.918;12.530;2023-03-23T09:12:04;7.63;;;4.37;;
13425;SDS011;6785;57.918;12.530;2023-03-23T09:14:31;5.10;;;3.40;;
13425;SDS011;6785;57.918;12.530;2023-03-23T09:16:58;6.80;;;4.03;;
13425;SDS011;6785;57.918;12.530;2023-03-23T09:19:27;4.93;;;3.60;;
13425;SDS011;6785;57.918;12.530;2023-03-23T09:21:53;6.40;;;3.70;;
13425;SDS011;6785;57.918;12.530;2023-03-23T09:24:20;6.60;;;3.60;;
13425;SDS011;6785;57.918;12.530;2023-03-23T09:26:47;6.73;;;3.83;;
13425;SDS011;6785;57.918;12.530;2023-03-23T09:29:14;7.70;;;3.67;;
13425;SDS011;6785;57.918;12.530;2023-03-23T09:31:41;8.13;;;3.47;;
13425;SDS011;6785;57.918;12.530;2023-03-23T09:34:11;4.00;;;3.07;;
13425;SDS011;6785;57.918;12.530;2023-03-23T09:36:39;7.00;;;3.90;;
13425;SDS011;6785;57.918;12.530;2023-03-23T09:39:06;4.30;;;3.90;;
13425;SDS011;6785;57.918;12.530;2023-03-23T09:41:46;5.33;;;3.43;;
13425;SDS011;6785;57.918;12.530;2023-03-23T09:44:22;7.40;;;4.17;;
13425;SDS011;6785;57.918;12.530;2023-03-23T09:46:57;8.67;;;4.33;;
13425;SDS011;6785;57.918;12.530;2023-03-23T09:49:29;10.07;;;4.33;;
13425;SDS011;6785;57.918;12.530;2023-03-23T09:52:01;6.13;;;4.83;;
13425;SDS011;6785;57.918;12.530;2023-03-23T09:54:33;8.23;;;4.33;;
13425;SDS011;6785;57.918;12.530;2023-03-23T09:57:02;7.40;;;4.77;;
13425;SDS011;6785;57.918;12.530;2023-03-23T09:59:32;9.33;;;4.80;;
13425;SDS011;6785;57.918;12.530;2023-03-23T10:02:09;10.47;;;5.63;;
13425;SDS011;6785;57.918;12.530;2023-03-23T10:04:41;8.87;;;5.00;;
13425;SDS011;6785;57.918;12.530;2023-03-23T10:07:13;9.33;;;5.67;;
13425;SDS011;6785;57.918;12.530;2023-03-23T10:09:43;11.10;;;5.50;;
13425;SDS011;6785;57.918;12.530;2023-03-23T10:12:15;8.93;;;5.10;;
13425;SDS011;6785;57.918;12.530;2023-03-23T10:14:50;7.50;;;4.80;;
13425;SDS011;6785;57.918;12.530;2023-03-23T10:17:25;7.40;;;5.00;;
13425;SDS011;6785;57.918;12.530;2023-03-23T10:19:55;9.27;;;5.27;;
13425;SDS011;6785;57.918;12.530;2023-03-23T10:22:32;10.70;;;5.50;;
13425;SDS011;6785;57.918;12.530;2023-03-23T10:25:03;9.57;;;5.80;;
13425;SDS011;6785;57.918;12.530;2023-03-23T10:27:41;7.07;;;4.73;;
13425;SDS011;6785;57.918;12.530;2023-03-23T10:30:13;8.83;;;5.37;;
13425;SDS011;6785;57.918;12.530;2023-03-23T10:32:45;9.90;;;6.13;;
13425;SDS011;6785;57.918;12.530;2023-03-23T10:35:17;6.53;;;5.23;;
13425;SDS011;6785;57.918;12.530;2023-03-23T10:37:52;7.97;;;5.73;;
13425;SDS011;6785;57.918;12.530;2023-03-23T10:40:23;8.70;;;5.43;;
13425;SDS011;6785;57.918;12.530;2023-03-23T10:42:54;5.77;;;4.50;;
13425;SDS011;6785;57.918;12.530;2023-03-23T10:45:23;9.47;;;4.90;;
13425;SDS011;6785;57.918;12.530;2023-03-23T10:47:55;7.73;;;4.33;;
13425;SDS011;6785;57.918;12.530;2023-03-23T10:50:29;6.50;;;4.80;;
13425;SDS011;6785;57.918;12.530;2023-03-23T10:52:59;11.50;;;8.53;;
13425;SDS011;6785;57.918;12.530;2023-03-23T10:55:37;10.90;;;4.63;;
13425;SDS011;6785;57.918;12.530;2023-03-23T10:58:06;5.07;;;3.93;;
13425;SDS011;6785;57.918;12.530;2023-03-23T11:00:39;11.23;;;4.83;;
13425;SDS011;6785;57.918;12.530;2023-03-23T11:03:20;11.10;;;6.57;;
13425;SDS011;6785;57.918;12.530;2023-03-23T11:05:52;9.47;;;5.17;;
13425;SDS011;6785;57.918;12.530;2023-03-23T11:08:24;11.83;;;6.30;;
13425;SDS011;6785;57.918;12.530;2023-03-23T11:10:53;10.60;;;7.00;;
13425;SDS011;6785;57.918;12.530;2023-03-23T11:13:22;8.93;;;6.07;;
13425;SDS011;6785;57.918;12.530;2023-03-23T11:15:53;9.90;;;6.53;;
13425;SDS011;6785;57.918;12.530;2023-03-23T11:18:23;14.07;;;6.87;;
13425;SDS011;6785;57.918;12.530;2023-03-23T11:20:51;10.03;;;6.27;;
13425;SDS011;6785;57.918;12.530;2023-03-23T11:23:22;8.50;;;6.07;;
13425;SDS011;6785;57.918;12.530;2023-03-23T11:25:54;11.67;;;6.47;;
13425;SDS011;6785;57.918;12.530;2023-03-23T11:28:27;13.30;;;5.93;;
13425;SDS011;6785;57.918;12.530;2023-03-23T11:30:58;8.07;;;5.70;;
13425;SDS011;6785;57.918;12.530;2023-03-23T11:33:28;8.37;;;5.47;;
13425;SDS011;6785;57.918;12.530;2023-03-23T11:35:56;10.47;;;4.90;;
13425;SDS011;6785;57.918;12.530;2023-03-23T11:38:24;6.47;;;4.83;;
13425;SDS011;6785;57.918;12.530;2023-03-23T11:40:53;5.67;;;4.30;;
13425;SDS011;6785;57.918;12.530;2023-03-23T11:43:21;6.93;;;3.50;;
13425;SDS011;6785;57.918;12.530;2023-03-23T11:45:50;7.10;;;3.60;;
13425;SDS011;6785;57.918;12.530;2023-03-23T11:48:26;3.60;;;3.10;;
13425;SDS011;6785;57.918;12.530;2023-03-23T11:50:59;4.30;;;3.00;;
13425;SDS011;6785;57.918;12.530;2023-03-23T11:53:34;5.93;;;2.90;;
13425;SDS011;6785;57.918;12.530;2023-03-23T11:56:09;8.50;;;2.87;;
13425;SDS011;6785;57.918;12.530;2023-03-23T11:58:41;5.70;;;2.83;;
13425;SDS011;6785;57.918;12.530;2023-03-23T12:01:11;5.23;;;2.60;;
13425;SDS011;6785;57.918;12.530;2023-03-23T12:03:53;5.70;;;2.63;;
13425;SDS011;6785;57.918;12.530;2023-03-23T12:06:33;4.80;;;3.03;;
13425;SDS011;6785;57.918;12.530;2023-03-23T12:09:10;4.83;;;2.50;;
13425;SDS011;6785;57.918;12.530;2023-03-23T12:11:51;6.27;;;2.97;;
13425;SDS011;6785;57.918;12.530;2023-03-23T12:14:33;6.37;;;2.87;;
13425;SDS011;6785;57.918;12.530;2023-03-23T12:17:10;10.97;;;2.80;;
13425;SDS011;6785;57.918;12.530;2023-03-23T12:19:46;7.03;;;2.43;;
13425;SDS011;6785;57.918;12.530;2023-03-23T12:22:40;7.53;;;2.93;;
13425;SDS011;6785;57.918;12.530;2023-03-23T12:25:20;6.87;;;2.30;;
13425;SDS011;6785;57.918;12.530;2023-03-23T12:28:06;4.73;;;2.60;;
13425;SDS011;6785;57.918;12.530;2023-03-23T12:30:45;5.13;;;2.40;;
13425;SDS011;6785;57.918;12.530;2023-03-23T12:33:18;7.10;;;2.67;;
13425;SDS011;6785;57.918;12.530;2023-03-23T12:35:55;6.97;;;2.10;;
13425;SDS011;6785;57.918;12.530;2023-03-23T12:38:32;6.07;;;1.90;;
13425;SDS011;6785;57.918;12.530;2023-03-23T12:41:19;4.27;;;1.90;;
13425;SDS011;6785;57.918;12.530;2023-03-23T12:43:52;2.33;;;1.40;;
13425;SDS011;6785;57.918;12.530;2023-03-23T12:49:25;3.50;;;1.87;;
13425;SDS011;6785;57.918;12.530;2023-03-23T12:51:58;3.53;;;1.53;;
13425;SDS011;6785;57.918;12.530;2023-03-23T12:54:29;4.83;;;1.67;;
13425;SDS011;6785;57.918;12.530;2023-03-23T12:57:02;4.93;;;2.10;;
13425;SDS011;6785;57.918;12.530;2023-03-23T12:59:36;5.50;;;1.57;;
13425;SDS011;6785;57.918;12.530;2023-03-23T13:02:10;2.40;;;1.43;;
13425;SDS011;6785;57.918;12.530;2023-03-23T13:04:43;5.83;;;1.60;;
13425;SDS011;6785;57.918;12.530;2023-03-23T13:07:13;9.93;;;1.73;;
13425;SDS011;6785;57.918;12.530;2023-03-23T13:09:46;2.63;;;1.33;;
13425;SDS011;6785;57.918;12.530;2023-03-23T13:12:19;2.20;;;1.20;;
13425;SDS011;6785;57.918;12.530;2023-03-23T13:14:50;2.10;;;1.10;;
13425;SDS011;6785;57.918;12.530;2023-03-23T13:17:25;3.60;;;1.20;;
13425;SDS011;6785;57.918;12.530;2023-03-23T13:22:59;1.90;;;1.30;;
13425;SDS011;6785;57.918;12.530;2023-03-23T13:25:39;1.67;;;0.87;;
13425;SDS011;6785;57.918;12.530;2023-03-23T13:28:17;1.13;;;1.03;;
13425;SDS011;6785;57.918;12.530;2023-03-23T13:30:53;3.70;;;0.90;;
13425;SDS011;6785;57.918;12.530;2023-03-23T13:33:25;3.13;;;0.90;;
13425;SDS011;6785;57.918;12.530;2023-03-23T13:35:54;0.87;;;0.87;;
13425;SDS011;6785;57.918;12.530;2023-03-23T13:38:23;2.47;;;1.00;;
13425;SDS011;6785;57.918;12.530;2023-03-23T13:40:51;1.17;;;0.90;;
13425;SDS011;6785;57.918;12.530;2023-03-23T13:43:26;2.33;;;0.90;;
13425;SDS011;6785;57.918;12.530;2023-03-23T13:46:05;1.10;;;1.00;;
13425;SDS011;6785;57.918;12.530;2023-03-23T13:48:41;1.40;;;1.20;;
13425;SDS011;6785;57.918;12.530;2023-03-23T13:51:24;1.20;;;1.10;;
13425;SDS011;6785;57.918;12.530;2023-03-23T13:54:04;0.97;;;0.90;;
13425;SDS011;6785;57.918;12.530;2023-03-23T13:56:35;2.10;;;1.13;;
13425;SDS011;6785;57.918;12.530;2023-03-23T13:59:07;1.60;;;1.10;;
13425;SDS011;6785;57.918;12.530;2023-03-23T14:01:40;4.03;;;1.40;;
13425;SDS011;6785;57.918;12.530;2023-03-23T14:04:13;3.70;;;1.50;;
13425;SDS011;6785;57.918;12.530;2023-03-23T14:06:43;1.70;;;1.23;;
13425;SDS011;6785;57.918;12.530;2023-03-23T14:09:12;2.77;;;1.10;;
13425;SDS011;6785;57.918;12.530;2023-03-23T14:11:50;1.40;;;1.13;;
13425;SDS011;6785;57.918;12.530;2023-03-23T14:14:25;2.93;;;1.20;;
13425;SDS011;6785;57.918;12.530;2023-03-23T14:17:04;2.70;;;1.40;;
13425;SDS011;6785;57.918;12.530;2023-03-23T14:19:32;2.03;;;1.30;;
13425;SDS011;6785;57.918;12.530;2023-03-23T14:22:03;5.10;;;1.80;;
13425;SDS011;6785;57.918;12.530;2023-03-23T14:24:30;5.60;;;1.97;;
13425;SDS011;6785;57.918;12.530;2023-03-23T14:27:03;9.13;;;2.40;;
13425;SDS011;6785;57.918;12.530;2023-03-23T14:29:37;5.53;;;1.70;;
13425;SDS011;6785;57.918;12.530;2023-03-23T14:32:05;10.00;;;2.40;;
13425;SDS011;6785;57.918;12.530;2023-03-23T14:34:33;10.67;;;2.50;;
13425;SDS011;6785;57.918;12.530;2023-03-23T14:37:01;11.93;;;2.30;;
13425;SDS011;6785;57.918;12.530;2023-03-23T14:39:29;8.37;;;2.47;;
13425;SDS011;6785;57.918;12.530;2023-03-23T14:42:00;5.77;;;2.43;;
13425;SDS011;6785;57.918;12.530;2023-03-23T14:44:29;12.07;;;2.70;;
13425;SDS011;6785;57.918;12.530;2023-03-23T14:47:04;10.73;;;3.03;;
13425;SDS011;6785;57.918;12.530;2023-03-23T14:49:37;14.27;;;3.80;;
13425;SDS011;6785;57.918;12.530;2023-03-23T14:52:09;16.90;;;2.90;;
13425;SDS011;6785;57.918;12.530;2023-03-23T14:54:36;18.77;;;3.67;;
13425;SDS011;6785;57.918;12.530;2023-03-23T14:57:10;22.70;;;4.27;;
13425;SDS011;6785;57.918;12.530;2023-03-23T14:59:39;18.33;;;4.00;;
13425;SDS011;6785;57.918;12.530;2023-03-23T15:02:10;12.07;;;3.30;;
13425;SDS011;6785;57.918;12.530;2023-03-23T15:04:40;16.13;;;3.33;;
13425;SDS011;6785;57.918;12.530;2023-03-23T15:07:09;15.00;;;3.30;;